Alamance, North Carolina
Current Conditions -  °F | °C
As of 11:54 AM on Tuesday 27 Jan 2015 (Local Time) from KBUY Reporting Station
Scattered Clouds Scattered Clouds  
Wind Chill: 32°   Ceiling: Unl
Heat Index: 39°   Visibility: 10mi
Dew Point: 11°   Wind: 10mph
Humidity: 32%   Direction: 350°N
Pressure: 29.83"   Gusts: NA
Location:  36.04°N, 79.49°W
Report Text: KBUY 271654Z AUTO 35009KT 10SM SCT055 04/M12 A2983 RMK AO2 SLP102 T00391117
Loading
Personal Weather Stations






























Interactive Weather Map New forecast layout! Learn more

10-Day Weather Forecast

Advertisements
Track Severe Weather on mobile